Rockton, Illinois
Current Conditions -  °F | °C
As of 10:35 PM on Monday 20 Oct 2014 (Local Time) from KJVL Reporting Station
Overcast Overcast  
Wind Chill: 52°   Ceiling: 5000
Heat Index: 52°   Visibility: 10mi
Dew Point: 41°   Wind: 5mph
Humidity: 67%   Direction: 10°N
Pressure: 30.01"   Gusts: NA
Location:  42.45°N, 89.07°W
Report Text: KJVL 210335Z AUTO 01004KT 10SM OVC050 11/05 A3001 RMK AO2
Loading
Personal Weather Stations






























Interactive Weather Map
Tropical Storm Tracking
New forecast layout! Learn more

10-Day Weather Forecast

Advertisements
Track Severe Weather on mobile